sensor_id;sensor_type;location;lat;lon;timestamp;P1;durP1;ratioP1;P2;durP2;ratioP2
8887;SDS011;4480;52.370;9.748;2022-09-09T00:00:19;5.60;;;5.00;;
8887;SDS011;4480;52.370;9.748;2022-09-09T00:02:50;5.73;;;5.13;;
8887;SDS011;4480;52.370;9.748;2022-09-09T00:05:25;5.60;;;5.10;;
8887;SDS011;4480;52.370;9.748;2022-09-09T00:07:57;6.30;;;5.27;;
8887;SDS011;4480;52.370;9.748;2022-09-09T00:10:29;4.77;;;4.37;;
8887;SDS011;4480;52.370;9.748;2022-09-09T00:13:00;14.30;;;4.20;;
8887;SDS011;4480;52.370;9.748;2022-09-09T00:15:36;5.47;;;5.00;;
8887;SDS011;4480;52.370;9.748;2022-09-09T00:18:09;7.43;;;4.83;;
8887;SDS011;4480;52.370;9.748;2022-09-09T00:20:42;4.90;;;4.17;;
8887;SDS011;4480;52.370;9.748;2022-09-09T00:23:19;5.20;;;4.27;;
8887;SDS011;4480;52.370;9.748;2022-09-09T00:25:53;5.37;;;3.83;;
8887;SDS011;4480;52.370;9.748;2022-09-09T00:28:26;4.80;;;4.40;;
8887;SDS011;4480;52.370;9.748;2022-09-09T00:30:56;3.50;;;3.20;;
8887;SDS011;4480;52.370;9.748;2022-09-09T00:33:27;3.87;;;3.20;;
8887;SDS011;4480;52.370;9.748;2022-09-09T00:35:57;5.13;;;3.13;;
8887;SDS011;4480;52.370;9.748;2022-09-09T00:38:27;2.77;;;2.47;;
8887;SDS011;4480;52.370;9.748;2022-09-09T00:41:00;3.47;;;3.17;;
8887;SDS011;4480;52.370;9.748;2022-09-09T00:43:34;4.37;;;2.90;;
8887;SDS011;4480;52.370;9.748;2022-09-09T00:46:10;3.10;;;2.50;;
8887;SDS011;4480;52.370;9.748;2022-09-09T00:49:08;2.33;;;2.13;;
8887;SDS011;4480;52.370;9.748;2022-09-09T00:51:46;2.70;;;2.50;;
8887;SDS011;4480;52.370;9.748;2022-09-09T00:54:28;3.00;;;2.60;;
8887;SDS011;4480;52.370;9.748;2022-09-09T00:57:06;2.53;;;2.33;;
8887;SDS011;4480;52.370;9.748;2022-09-09T00:59:43;2.93;;;2.40;;
8887;SDS011;4480;52.370;9.748;2022-09-09T01:02:16;5.60;;;2.50;;
8887;SDS011;4480;52.370;9.748;2022-09-09T01:04:53;2.20;;;2.00;;
8887;SDS011;4480;52.370;9.748;2022-09-09T01:07:20;2.70;;;2.20;;
8887;SDS011;4480;52.370;9.748;2022-09-09T01:09:54;2.50;;;2.30;;
8887;SDS011;4480;52.370;9.748;2022-09-09T01:12:26;2.83;;;2.20;;
8887;SDS011;4480;52.370;9.748;2022-09-09T01:15:03;3.00;;;2.73;;
8887;SDS011;4480;52.370;9.748;2022-09-09T01:17:38;2.33;;;1.73;;
8887;SDS011;4480;52.370;9.748;2022-09-09T01:20:13;2.33;;;2.10;;
8887;SDS011;4480;52.370;9.748;2022-09-09T01:22:44;2.17;;;1.97;;
8887;SDS011;4480;52.370;9.748;2022-09-09T01:25:21;4.10;;;2.13;;
8887;SDS011;4480;52.370;9.748;2022-09-09T01:27:56;4.30;;;1.80;;
8887;SDS011;4480;52.370;9.748;2022-09-09T01:30:25;4.20;;;1.80;;
8887;SDS011;4480;52.370;9.748;2022-09-09T01:32:54;2.90;;;2.20;;
8887;SDS011;4480;52.370;9.748;2022-09-09T01:35:29;3.57;;;1.90;;
8887;SDS011;4480;52.370;9.748;2022-09-09T01:38:01;2.60;;;2.10;;
8887;SDS011;4480;52.370;9.748;2022-09-09T01:40:27;2.00;;;1.77;;
8887;SDS011;4480;52.370;9.748;2022-09-09T01:42:55;1.70;;;1.60;;
8887;SDS011;4480;52.370;9.748;2022-09-09T01:45:22;1.77;;;1.67;;
8887;SDS011;4480;52.370;9.748;2022-09-09T01:47:50;2.83;;;1.50;;
8887;SDS011;4480;52.370;9.748;2022-09-09T01:50:19;1.77;;;1.47;;
8887;SDS011;4480;52.370;9.748;2022-09-09T01:52:46;2.17;;;2.07;;
8887;SDS011;4480;52.370;9.748;2022-09-09T01:55:16;4.20;;;1.90;;
8887;SDS011;4480;52.370;9.748;2022-09-09T01:57:47;2.47;;;2.10;;
8887;SDS011;4480;52.370;9.748;2022-09-09T02:00:23;1.80;;;1.70;;
8887;SDS011;4480;52.370;9.748;2022-09-09T02:02:53;2.60;;;1.53;;
8887;SDS011;4480;52.370;9.748;2022-09-09T02:05:28;3.70;;;1.50;;
8887;SDS011;4480;52.370;9.748;2022-09-09T02:08:03;2.20;;;1.57;;
8887;SDS011;4480;52.370;9.748;2022-09-09T02:10:35;3.40;;;1.50;;
8887;SDS011;4480;52.370;9.748;2022-09-09T02:13:08;3.77;;;1.90;;
8887;SDS011;4480;52.370;9.748;2022-09-09T02:15:40;1.53;;;1.40;;
8887;SDS011;4480;52.370;9.748;2022-09-09T02:18:11;1.53;;;1.43;;
8887;SDS011;4480;52.370;9.748;2022-09-09T02:20:41;2.53;;;1.87;;
8887;SDS011;4480;52.370;9.748;2022-09-09T02:23:11;4.13;;;1.90;;
8887;SDS011;4480;52.370;9.748;2022-09-09T02:25:41;1.60;;;1.50;;
8887;SDS011;4480;52.370;9.748;2022-09-09T02:28:09;6.10;;;1.70;;
8887;SDS011;4480;52.370;9.748;2022-09-09T02:30:39;2.40;;;1.40;;
8887;SDS011;4480;52.370;9.748;2022-09-09T02:33:08;3.17;;;2.00;;
8887;SDS011;4480;52.370;9.748;2022-09-09T02:35:37;3.50;;;2.10;;
8887;SDS011;4480;52.370;9.748;2022-09-09T02:38:06;4.33;;;2.17;;
8887;SDS011;4480;52.370;9.748;2022-09-09T02:40:38;1.83;;;1.60;;
8887;SDS011;4480;52.370;9.748;2022-09-09T02:43:05;2.10;;;1.33;;
8887;SDS011;4480;52.370;9.748;2022-09-09T02:45:33;1.93;;;1.50;;
8887;SDS011;4480;52.370;9.748;2022-09-09T02:48:09;2.80;;;1.70;;
8887;SDS011;4480;52.370;9.748;2022-09-09T02:50:41;2.40;;;1.60;;
8887;SDS011;4480;52.370;9.748;2022-09-09T02:53:16;3.47;;;1.70;;
8887;SDS011;4480;52.370;9.748;2022-09-09T02:55:46;4.20;;;1.77;;
8887;SDS011;4480;52.370;9.748;2022-09-09T02:58:14;2.77;;;1.67;;
8887;SDS011;4480;52.370;9.748;2022-09-09T03:00:43;3.33;;;1.90;;
8887;SDS011;4480;52.370;9.748;2022-09-09T03:03:13;4.33;;;2.40;;
8887;SDS011;4480;52.370;9.748;2022-09-09T03:05:41;3.33;;;1.60;;
8887;SDS011;4480;52.370;9.748;2022-09-09T03:08:08;2.40;;;1.70;;
8887;SDS011;4480;52.370;9.748;2022-09-09T03:10:35;1.70;;;1.60;;
8887;SDS011;4480;52.370;9.748;2022-09-09T03:13:02;3.57;;;1.73;;
8887;SDS011;4480;52.370;9.748;2022-09-09T03:15:30;4.20;;;1.80;;
8887;SDS011;4480;52.370;9.748;2022-09-09T03:17:57;1.73;;;1.60;;
8887;SDS011;4480;52.370;9.748;2022-09-09T03:20:26;2.10;;;1.60;;
8887;SDS011;4480;52.370;9.748;2022-09-09T03:22:54;3.80;;;1.60;;
8887;SDS011;4480;52.370;9.748;2022-09-09T03:25:21;3.33;;;1.70;;
8887;SDS011;4480;52.370;9.748;2022-09-09T03:27:49;1.87;;;1.53;;
8887;SDS011;4480;52.370;9.748;2022-09-09T03:30:19;4.53;;;1.90;;
8887;SDS011;4480;52.370;9.748;2022-09-09T03:32:46;2.37;;;1.80;;
8887;SDS011;4480;52.370;9.748;2022-09-09T03:35:13;2.37;;;1.57;;
8887;SDS011;4480;52.370;9.748;2022-09-09T03:37:41;2.13;;;2.00;;
8887;SDS011;4480;52.370;9.748;2022-09-09T03:40:09;2.37;;;1.40;;
8887;SDS011;4480;52.370;9.748;2022-09-09T03:42:36;1.63;;;1.53;;
8887;SDS011;4480;52.370;9.748;2022-09-09T03:45:04;2.90;;;1.50;;
8887;SDS011;4480;52.370;9.748;2022-09-09T03:47:34;2.23;;;1.40;;
8887;SDS011;4480;52.370;9.748;2022-09-09T03:50:00;3.60;;;2.20;;
8887;SDS011;4480;52.370;9.748;2022-09-09T03:52:29;3.70;;;1.60;;
8887;SDS011;4480;52.370;9.748;2022-09-09T03:54:57;6.93;;;2.33;;
8887;SDS011;4480;52.370;9.748;2022-09-09T03:57:24;2.30;;;1.50;;
8887;SDS011;4480;52.370;9.748;2022-09-09T03:59:50;2.60;;;1.80;;
8887;SDS011;4480;52.370;9.748;2022-09-09T04:02:17;4.83;;;2.20;;
8887;SDS011;4480;52.370;9.748;2022-09-09T04:04:44;2.70;;;1.70;;
8887;SDS011;4480;52.370;9.748;2022-09-09T04:10:11;5.13;;;1.93;;
8887;SDS011;4480;52.370;9.748;2022-09-09T04:12:38;3.60;;;2.20;;
8887;SDS011;4480;52.370;9.748;2022-09-09T04:15:05;8.07;;;2.20;;
8887;SDS011;4480;52.370;9.748;2022-09-09T04:17:33;2.60;;;2.27;;
8887;SDS011;4480;52.370;9.748;2022-09-09T04:20:01;5.33;;;1.93;;
8887;SDS011;4480;52.370;9.748;2022-09-09T04:22:28;4.93;;;2.10;;
8887;SDS011;4480;52.370;9.748;2022-09-09T04:24:55;4.90;;;2.23;;
8887;SDS011;4480;52.370;9.748;2022-09-09T04:27:23;3.73;;;2.27;;
8887;SDS011;4480;52.370;9.748;2022-09-09T04:29:50;4.63;;;2.03;;
8887;SDS011;4480;52.370;9.748;2022-09-09T04:32:16;3.80;;;2.03;;
8887;SDS011;4480;52.370;9.748;2022-09-09T04:34:43;2.40;;;2.10;;
8887;SDS011;4480;52.370;9.748;2022-09-09T04:37:12;4.43;;;1.80;;
8887;SDS011;4480;52.370;9.748;2022-09-09T04:39:39;5.03;;;2.20;;
8887;SDS011;4480;52.370;9.748;2022-09-09T04:42:06;2.10;;;1.93;;
8887;SDS011;4480;52.370;9.748;2022-09-09T04:44:34;2.10;;;1.90;;
8887;SDS011;4480;52.370;9.748;2022-09-09T04:47:01;2.23;;;1.83;;
8887;SDS011;4480;52.370;9.748;2022-09-09T04:49:28;3.20;;;1.63;;
8887;SDS011;4480;52.370;9.748;2022-09-09T04:51:56;2.50;;;2.30;;
8887;SDS011;4480;52.370;9.748;2022-09-09T04:54:23;5.47;;;2.20;;
8887;SDS011;4480;52.370;9.748;2022-09-09T04:56:50;4.20;;;1.97;;
8887;SDS011;4480;52.370;9.748;2022-09-09T04:59:17;2.80;;;2.07;;
8887;SDS011;4480;52.370;9.748;2022-09-09T05:01:45;2.83;;;1.80;;
8887;SDS011;4480;52.370;9.748;2022-09-09T05:04:12;2.47;;;2.03;;
8887;SDS011;4480;52.370;9.748;2022-09-09T05:06:40;4.10;;;1.90;;
8887;SDS011;4480;52.370;9.748;2022-09-09T05:09:07;2.83;;;1.73;;
8887;SDS011;4480;52.370;9.748;2022-09-09T05:11:34;4.40;;;2.40;;
8887;SDS011;4480;52.370;9.748;2022-09-09T05:14:01;2.47;;;1.87;;
8887;SDS011;4480;52.370;9.748;2022-09-09T05:16:29;3.33;;;1.90;;
8887;SDS011;4480;52.370;9.748;2022-09-09T05:18:57;2.70;;;1.80;;
8887;SDS011;4480;52.370;9.748;2022-09-09T05:21:24;2.40;;;1.67;;
8887;SDS011;4480;52.370;9.748;2022-09-09T05:23:53;2.50;;;2.00;;
8887;SDS011;4480;52.370;9.748;2022-09-09T05:26:20;4.10;;;2.20;;
8887;SDS011;4480;52.370;9.748;2022-09-09T05:28:49;3.60;;;2.00;;
8887;SDS011;4480;52.370;9.748;2022-09-09T05:31:16;3.40;;;2.20;;
8887;SDS011;4480;52.370;9.748;2022-09-09T05:33:44;2.43;;;2.07;;
8887;SDS011;4480;52.370;9.748;2022-09-09T05:36:15;5.30;;;2.07;;
8887;SDS011;4480;52.370;9.748;2022-09-09T05:38:43;3.60;;;1.70;;
8887;SDS011;4480;52.370;9.748;2022-09-09T05:41:10;3.37;;;1.93;;
8887;SDS011;4480;52.370;9.748;2022-09-09T05:43:40;2.93;;;2.03;;
8887;SDS011;4480;52.370;9.748;2022-09-09T05:46:09;2.23;;;1.80;;
8887;SDS011;4480;52.370;9.748;2022-09-09T05:48:38;3.83;;;2.37;;
8887;SDS011;4480;52.370;9.748;2022-09-09T05:51:07;3.93;;;2.10;;
8887;SDS011;4480;52.370;9.748;2022-09-09T05:53:38;2.00;;;1.80;;
8887;SDS011;4480;52.370;9.748;2022-09-09T05:56:05;2.77;;;1.80;;
8887;SDS011;4480;52.370;9.748;2022-09-09T05:58:35;2.47;;;1.90;;
8887;SDS011;4480;52.370;9.748;2022-09-09T06:01:03;3.27;;;2.17;;
8887;SDS011;4480;52.370;9.748;2022-09-09T06:03:31;3.43;;;2.07;;
8887;SDS011;4480;52.370;9.748;2022-09-09T06:05:59;3.33;;;1.87;;
8887;SDS011;4480;52.370;9.748;2022-09-09T06:08:27;4.53;;;2.80;;
8887;SDS011;4480;52.370;9.748;2022-09-09T06:11:00;3.50;;;2.00;;
8887;SDS011;4480;52.370;9.748;2022-09-09T06:13:29;2.67;;;1.80;;
8887;SDS011;4480;52.370;9.748;2022-09-09T06:15:56;3.90;;;2.60;;
8887;SDS011;4480;52.370;9.748;2022-09-09T06:18:23;4.30;;;2.27;;
8887;SDS011;4480;52.370;9.748;2022-09-09T06:20:57;3.00;;;2.37;;
8887;SDS011;4480;52.370;9.748;2022-09-09T06:23:25;3.20;;;2.03;;
8887;SDS011;4480;52.370;9.748;2022-09-09T06:26:01;3.67;;;2.50;;
8887;SDS011;4480;52.370;9.748;2022-09-09T06:28:30;3.53;;;2.30;;
8887;SDS011;4480;52.370;9.748;2022-09-09T06:30:57;3.63;;;2.07;;
8887;SDS011;4480;52.370;9.748;2022-09-09T06:33:24;5.27;;;1.90;;
8887;SDS011;4480;52.370;9.748;2022-09-09T06:35:54;3.60;;;2.20;;
8887;SDS011;4480;52.370;9.748;2022-09-09T06:38:22;9.43;;;2.60;;
8887;SDS011;4480;52.370;9.748;2022-09-09T06:40:50;4.30;;;2.47;;
8887;SDS011;4480;52.370;9.748;2022-09-09T06:43:20;4.80;;;2.23;;
8887;SDS011;4480;52.370;9.748;2022-09-09T06:45:54;2.60;;;1.90;;
8887;SDS011;4480;52.370;9.748;2022-09-09T06:48:21;6.07;;;2.60;;
8887;SDS011;4480;52.370;9.748;2022-09-09T06:50:51;3.37;;;2.60;;
8887;SDS011;4480;52.370;9.748;2022-09-09T06:53:43;3.67;;;2.30;;
8887;SDS011;4480;52.370;9.748;2022-09-09T06:56:18;3.23;;;2.30;;
8887;SDS011;4480;52.370;9.748;2022-09-09T06:58:48;3.27;;;2.00;;
8887;SDS011;4480;52.370;9.748;2022-09-09T07:01:17;3.03;;;1.97;;
8887;SDS011;4480;52.370;9.748;2022-09-09T07:03:45;3.60;;;2.07;;
8887;SDS011;4480;52.370;9.748;2022-09-09T07:06:15;4.70;;;1.83;;
8887;SDS011;4480;52.370;9.748;2022-09-09T07:08:43;2.40;;;1.57;;
8887;SDS011;4480;52.370;9.748;2022-09-09T07:11:14;6.27;;;2.43;;
8887;SDS011;4480;52.370;9.748;2022-09-09T07:13:40;2.90;;;1.83;;
8887;SDS011;4480;52.370;9.748;2022-09-09T07:16:09;4.30;;;1.77;;
8887;SDS011;4480;52.370;9.748;2022-09-09T07:18:38;3.40;;;2.00;;
8887;SDS011;4480;52.370;9.748;2022-09-09T07:21:05;2.50;;;1.83;;
8887;SDS011;4480;52.370;9.748;2022-09-09T07:23:33;3.53;;;1.87;;
8887;SDS011;4480;52.370;9.748;2022-09-09T07:26:00;3.30;;;1.70;;
8887;SDS011;4480;52.370;9.748;2022-09-09T07:28:28;3.57;;;1.77;;
8887;SDS011;4480;52.370;9.748;2022-09-09T07:30:56;2.00;;;1.13;;
8887;SDS011;4480;52.370;9.748;2022-09-09T07:33:25;6.73;;;1.83;;
8887;SDS011;4480;52.370;9.748;2022-09-09T07:35:52;3.47;;;1.77;;
8887;SDS011;4480;52.370;9.748;2022-09-09T07:38:19;5.23;;;2.23;;
8887;SDS011;4480;52.370;9.748;2022-09-09T07:40:47;3.57;;;2.10;;
8887;SDS011;4480;52.370;9.748;2022-09-09T07:43:14;4.07;;;1.83;;
8887;SDS011;4480;52.370;9.748;2022-09-09T07:45:42;3.87;;;1.60;;
8887;SDS011;4480;52.370;9.748;2022-09-09T07:48:09;3.13;;;1.70;;
8887;SDS011;4480;52.370;9.748;2022-09-09T07:50:37;3.10;;;1.80;;
8887;SDS011;4480;52.370;9.748;2022-09-09T07:53:04;4.33;;;2.00;;
8887;SDS011;4480;52.370;9.748;2022-09-09T07:55:31;7.03;;;2.20;;
8887;SDS011;4480;52.370;9.748;2022-09-09T07:57:58;3.83;;;1.70;;
8887;SDS011;4480;52.370;9.748;2022-09-09T08:00:24;5.70;;;1.80;;
8887;SDS011;4480;52.370;9.748;2022-09-09T08:02:52;2.87;;;1.97;;
8887;SDS011;4480;52.370;9.748;2022-09-09T08:05:19;4.90;;;1.90;;
8887;SDS011;4480;52.370;9.748;2022-09-09T08:07:48;3.13;;;2.00;;
8887;SDS011;4480;52.370;9.748;2022-09-09T08:10:15;3.70;;;1.40;;
8887;SDS011;4480;52.370;9.748;2022-09-09T08:12:43;6.90;;;1.60;;
8887;SDS011;4480;52.370;9.748;2022-09-09T08:15:10;3.90;;;1.63;;
8887;SDS011;4480;52.370;9.748;2022-09-09T08:20:07;2.17;;;1.20;;
8887;SDS011;4480;52.370;9.748;2022-09-09T08:22:34;3.20;;;1.50;;
8887;SDS011;4480;52.370;9.748;2022-09-09T08:25:04;4.80;;;1.50;;
8887;SDS011;4480;52.370;9.748;2022-09-09T08:27:33;3.07;;;1.90;;
8887;SDS011;4480;52.370;9.748;2022-09-09T08:30:00;3.33;;;1.87;;
8887;SDS011;4480;52.370;9.748;2022-09-09T08:32:27;3.37;;;1.57;;
8887;SDS011;4480;52.370;9.748;2022-09-09T08:34:54;2.87;;;2.33;;
8887;SDS011;4480;52.370;9.748;2022-09-09T08:37:21;4.27;;;1.43;;
8887;SDS011;4480;52.370;9.748;2022-09-09T08:39:47;2.37;;;1.20;;
8887;SDS011;4480;52.370;9.748;2022-09-09T08:42:21;6.60;;;1.63;;
8887;SDS011;4480;52.370;9.748;2022-09-09T08:47:51;6.27;;;1.43;;
8887;SDS011;4480;52.370;9.748;2022-09-09T08:50:28;2.90;;;1.13;;
8887;SDS011;4480;52.370;9.748;2022-09-09T08:53:00;4.83;;;1.50;;
8887;SDS011;4480;52.370;9.748;2022-09-09T08:55:35;2.17;;;1.27;;
8887;SDS011;4480;52.370;9.748;2022-09-09T08:58:11;2.13;;;1.27;;
8887;SDS011;4480;52.370;9.748;2022-09-09T09:00:42;3.63;;;1.23;;
8887;SDS011;4480;52.370;9.748;2022-09-09T09:03:21;5.77;;;1.63;;
8887;SDS011;4480;52.370;9.748;2022-09-09T09:05:56;2.40;;;1.23;;
8887;SDS011;4480;52.370;9.748;2022-09-09T09:08:30;6.20;;;2.00;;
8887;SDS011;4480;52.370;9.748;2022-09-09T09:11:06;4.50;;;1.20;;
8887;SDS011;4480;52.370;9.748;2022-09-09T09:13:35;2.07;;;1.40;;
8887;SDS011;4480;52.370;9.748;2022-09-09T09:16:12;2.87;;;1.30;;
8887;SDS011;4480;52.370;9.748;2022-09-09T09:18:43;6.33;;;2.50;;
8887;SDS011;4480;52.370;9.748;2022-09-09T09:21:12;4.90;;;1.73;;
8887;SDS011;4480;52.370;9.748;2022-09-09T09:23:45;3.37;;;1.17;;
8887;SDS011;4480;52.370;9.748;2022-09-09T09:26:20;3.10;;;1.80;;
8887;SDS011;4480;52.370;9.748;2022-09-09T09:28:52;2.40;;;1.50;;
8887;SDS011;4480;52.370;9.748;2022-09-09T09:31:22;3.83;;;1.40;;
8887;SDS011;4480;52.370;9.748;2022-09-09T09:33:51;2.47;;;1.30;;
8887;SDS011;4480;52.370;9.748;2022-09-09T09:36:19;2.80;;;1.43;;
8887;SDS011;4480;52.370;9.748;2022-09-09T09:38:54;2.73;;;1.50;;
8887;SDS011;4480;52.370;9.748;2022-09-09T09:41:29;3.83;;;1.53;;
8887;SDS011;4480;52.370;9.748;2022-09-09T09:44:02;2.70;;;1.17;;
8887;SDS011;4480;52.370;9.748;2022-09-09T09:46:29;3.30;;;1.90;;
8887;SDS011;4480;52.370;9.748;2022-09-09T09:48:58;4.70;;;1.67;;
8887;SDS011;4480;52.370;9.748;2022-09-09T09:51:26;4.20;;;2.00;;
8887;SDS011;4480;52.370;9.748;2022-09-09T09:53:54;3.23;;;1.50;;
8887;SDS011;4480;52.370;9.748;2022-09-09T09:56:35;4.73;;;3.40;;
8887;SDS011;4480;52.370;9.748;2022-09-09T09:59:03;3.73;;;1.57;;
8887;SDS011;4480;52.370;9.748;2022-09-09T10:01:31;2.90;;;1.70;;
8887;SDS011;4480;52.370;9.748;2022-09-09T10:04:00;3.53;;;1.43;;
8887;SDS011;4480;52.370;9.748;2022-09-09T10:06:32;6.60;;;1.77;;
8887;SDS011;4480;52.370;9.748;2022-09-09T10:08:59;4.90;;;1.87;;
8887;SDS011;4480;52.370;9.748;2022-09-09T10:11:34;3.13;;;1.20;;
8887;SDS011;4480;52.370;9.748;2022-09-09T10:14:14;3.93;;;2.13;;
8887;SDS011;4480;52.370;9.748;2022-09-09T10:16:50;4.60;;;1.30;;
8887;SDS011;4480;52.370;9.748;2022-09-09T10:19:29;2.30;;;1.20;;
8887;SDS011;4480;52.370;9.748;2022-09-09T10:22:02;3.60;;;1.83;;
8887;SDS011;4480;52.370;9.748;2022-09-09T10:24:46;2.47;;;1.73;;
8887;SDS011;4480;52.370;9.748;2022-09-09T10:27:38;4.40;;;1.63;;
8887;SDS011;4480;52.370;9.748;2022-09-09T10:30:16;4.20;;;1.60;;
8887;SDS011;4480;52.370;9.748;2022-09-09T10:32:46;3.40;;;1.40;;
8887;SDS011;4480;52.370;9.748;2022-09-09T10:35:24;4.10;;;1.83;;
8887;SDS011;4480;52.370;9.748;2022-09-09T10:38:02;5.20;;;2.03;;
8887;SDS011;4480;52.370;9.748;2022-09-09T10:40:37;6.00;;;2.33;;
8887;SDS011;4480;52.370;9.748;2022-09-09T10:43:11;4.60;;;1.97;;
8887;SDS011;4480;52.370;9.748;2022-09-09T10:45:47;2.83;;;1.93;;
8887;SDS011;4480;52.370;9.748;2022-09-09T10:48:28;3.07;;;2.07;;
8887;SDS011;4480;52.370;9.748;2022-09-09T10:51:05;2.73;;;1.80;;
8887;SDS011;4480;52.370;9.748;2022-09-09T10:53:45;2.60;;;1.67;;
8887;SDS011;4480;52.370;9.748;2022-09-09T10:56:19;2.70;;;1.63;;
8887;SDS011;4480;52.370;9.748;2022-09-09T10:58:50;3.10;;;1.70;;
8887;SDS011;4480;52.370;9.748;2022-09-09T11:01:24;2.30;;;1.40;;
8887;SDS011;4480;52.370;9.748;2022-09-09T11:03:56;4.50;;;1.77;;
8887;SDS011;4480;52.370;9.748;2022-09-09T11:06:30;3.70;;;2.20;;
8887;SDS011;4480;52.370;9.748;2022-09-09T11:09:02;4.27;;;1.50;;
8887;SDS011;4480;52.370;9.748;2022-09-09T11:11:32;6.17;;;3.37;;
8887;SDS011;4480;52.370;9.748;2022-09-09T11:14:03;3.43;;;1.63;;
8887;SDS011;4480;52.370;9.748;2022-09-09T11:16:40;5.13;;;2.30;;
8887;SDS011;4480;52.370;9.748;2022-09-09T11:19:15;3.40;;;1.50;;
8887;SDS011;4480;52.370;9.748;2022-09-09T11:21:46;4.73;;;2.10;;
8887;SDS011;4480;52.370;9.748;2022-09-09T11:24:18;3.40;;;1.50;;
8887;SDS011;4480;52.370;9.748;2022-09-09T11:26:51;2.23;;;1.93;;
8887;SDS011;4480;52.370;9.748;2022-09-09T11:29:29;2.47;;;1.60;;
8887;SDS011;4480;52.370;9.748;2022-09-09T11:38:12;4.80;;;2.07;;
8887;SDS011;4480;52.370;9.748;2022-09-09T11:40:54;2.20;;;1.57;;
8887;SDS011;4480;52.370;9.748;2022-09-09T11:43:25;2.80;;;1.20;;
8887;SDS011;4480;52.370;9.748;2022-09-09T11:45:57;3.43;;;1.20;;
8887;SDS011;4480;52.370;9.748;2022-09-09T11:48:31;3.13;;;1.37;;
8887;SDS011;4480;52.370;9.748;2022-09-09T11:51:00;2.40;;;1.40;;
8887;SDS011;4480;52.370;9.748;2022-09-09T11:53:30;2.63;;;1.37;;
8887;SDS011;4480;52.370;9.748;2022-09-09T11:56:01;5.03;;;1.40;;
8887;SDS011;4480;52.370;9.748;2022-09-09T11:58:31;3.30;;;1.30;;
8887;SDS011;4480;52.370;9.748;2022-09-09T12:01:12;2.03;;;1.57;;
8887;SDS011;4480;52.370;9.748;2022-09-09T12:03:43;2.50;;;1.30;;
8887;SDS011;4480;52.370;9.748;2022-09-09T12:06:15;3.67;;;1.33;;
8887;SDS011;4480;52.370;9.748;2022-09-09T12:08:47;2.03;;;1.70;;
8887;SDS011;4480;52.370;9.748;2022-09-09T12:11:24;4.77;;;2.43;;
8887;SDS011;4480;52.370;9.748;2022-09-09T12:13:52;2.63;;;1.33;;
8887;SDS011;4480;52.370;9.748;2022-09-09T12:16:27;4.23;;;2.20;;
8887;SDS011;4480;52.370;9.748;2022-09-09T12:19:14;2.63;;;2.40;;
8887;SDS011;4480;52.370;9.748;2022-09-09T12:21:44;8.77;;;3.40;;
8887;SDS011;4480;52.370;9.748;2022-09-09T12:24:19;6.60;;;2.80;;
8887;SDS011;4480;52.370;9.748;2022-09-09T12:26:52;5.23;;;2.60;;
8887;SDS011;4480;52.370;9.748;2022-09-09T12:29:27;2.60;;;1.47;;
8887;SDS011;4480;52.370;9.748;2022-09-09T12:32:04;4.60;;;2.07;;
8887;SDS011;4480;52.370;9.748;2022-09-09T12:34:38;3.53;;;1.60;;
8887;SDS011;4480;52.370;9.748;2022-09-09T12:37:08;4.10;;;2.80;;
8887;SDS011;4480;52.370;9.748;2022-09-09T12:39:45;4.17;;;1.63;;
8887;SDS011;4480;52.370;9.748;2022-09-09T12:42:16;3.70;;;1.90;;
8887;SDS011;4480;52.370;9.748;2022-09-09T12:44:50;2.83;;;1.40;;
8887;SDS011;4480;52.370;9.748;2022-09-09T12:47:22;1.67;;;1.13;;
8887;SDS011;4480;52.370;9.748;2022-09-09T12:49:54;3.37;;;1.80;;
8887;SDS011;4480;52.370;9.748;2022-09-09T12:52:23;2.50;;;2.13;;
8887;SDS011;4480;52.370;9.748;2022-09-09T12:54:55;2.30;;;1.10;;
8887;SDS011;4480;52.370;9.748;2022-09-09T12:57:25;3.43;;;1.60;;
8887;SDS011;4480;52.370;9.748;2022-09-09T13:00:04;2.50;;;1.13;;
8887;SDS011;4480;52.370;9.748;2022-09-09T13:02:33;2.50;;;1.10;;
8887;SDS011;4480;52.370;9.748;2022-09-09T13:05:09;1.60;;;1.50;;
8887;SDS011;4480;52.370;9.748;2022-09-09T13:07:41;3.13;;;1.50;;
8887;SDS011;4480;52.370;9.748;2022-09-09T13:10:10;3.60;;;2.10;;
8887;SDS011;4480;52.370;9.748;2022-09-09T13:12:38;3.43;;;1.67;;
8887;SDS011;4480;52.370;9.748;2022-09-09T13:15:09;1.57;;;1.20;;
8887;SDS011;4480;52.370;9.748;2022-09-09T13:17:54;4.00;;;1.53;;
8887;SDS011;4480;52.370;9.748;2022-09-09T13:20:24;2.70;;;1.90;;
8887;SDS011;4480;52.370;9.748;2022-09-09T13:22:51;6.00;;;2.40;;
8887;SDS011;4480;52.370;9.748;2022-09-09T13:25:20;3.73;;;1.87;;
8887;SDS011;4480;52.370;9.748;2022-09-09T13:27:54;3.30;;;1.27;;
8887;SDS011;4480;52.370;9.748;2022-09-09T13:30:23;3.47;;;1.93;;
8887;SDS011;4480;52.370;9.748;2022-09-09T13:33:03;10.10;;;7.70;;
8887;SDS011;4480;52.370;9.748;2022-09-09T13:35:33;2.87;;;2.00;;
8887;SDS011;4480;52.370;9.748;2022-09-09T13:38:06;3.80;;;1.47;;
8887;SDS011;4480;52.370;9.748;2022-09-09T13:40:34;6.23;;;1.70;;
8887;SDS011;4480;52.370;9.748;2022-09-09T13:43:01;3.10;;;2.03;;
8887;SDS011;4480;52.370;9.748;2022-09-09T13:45:30;4.10;;;1.70;;
8887;SDS011;4480;52.370;9.748;2022-09-09T13:47:59;3.63;;;1.37;;
8887;SDS011;4480;52.370;9.748;2022-09-09T13:50:37;2.33;;;1.50;;
8887;SDS011;4480;52.370;9.748;2022-09-09T13:53:03;3.13;;;1.20;;
8887;SDS011;4480;52.370;9.748;2022-09-09T13:55:30;3.17;;;1.47;;
8887;SDS011;4480;52.370;9.748;2022-09-09T13:57:58;2.50;;;1.30;;
8887;SDS011;4480;52.370;9.748;2022-09-09T14:00:28;1.97;;;1.33;;
8887;SDS011;4480;52.370;9.748;2022-09-09T14:02:57;4.17;;;1.50;;
8887;SDS011;4480;52.370;9.748;2022-09-09T14:05:25;3.57;;;2.60;;
8887;SDS011;4480;52.370;9.748;2022-09-09T14:07:54;3.37;;;1.80;;
8887;SDS011;4480;52.370;9.748;2022-09-09T14:10:20;3.67;;;1.43;;
8887;SDS011;4480;52.370;9.748;2022-09-09T14:12:47;1.93;;;1.30;;
8887;SDS011;4480;52.370;9.748;2022-09-09T14:15:14;2.50;;;1.90;;
8887;SDS011;4480;52.370;9.748;2022-09-09T14:17:41;3.83;;;2.07;;
8887;SDS011;4480;52.370;9.748;2022-09-09T14:20:08;2.20;;;2.00;;
8887;SDS011;4480;52.370;9.748;2022-09-09T14:22:36;3.80;;;1.83;;
8887;SDS011;4480;52.370;9.748;2022-09-09T14:25:06;3.13;;;1.93;;
8887;SDS011;4480;52.370;9.748;2022-09-09T14:27:34;3.50;;;1.70;;
8887;SDS011;4480;52.370;9.748;2022-09-09T14:30:01;2.30;;;1.63;;
8887;SDS011;4480;52.370;9.748;2022-09-09T14:32:29;1.70;;;1.13;;
8887;SDS011;4480;52.370;9.748;2022-09-09T14:34:56;2.27;;;1.23;;
8887;SDS011;4480;52.370;9.748;2022-09-09T14:37:23;7.03;;;1.90;;
8887;SDS011;4480;52.370;9.748;2022-09-09T14:39:50;2.60;;;1.57;;
8887;SDS011;4480;52.370;9.748;2022-09-09T14:42:23;2.30;;;1.50;;
8887;SDS011;4480;52.370;9.748;2022-09-09T14:44:49;1.90;;;1.40;;
8887;SDS011;4480;52.370;9.748;2022-09-09T14:47:16;4.40;;;1.63;;
8887;SDS011;4480;52.370;9.748;2022-09-09T14:49:43;5.33;;;3.30;;
8887;SDS011;4480;52.370;9.748;2022-09-09T14:52:10;2.70;;;1.53;;
8887;SDS011;4480;52.370;9.748;2022-09-09T14:54:38;2.87;;;1.27;;
8887;SDS011;4480;52.370;9.748;2022-09-09T14:57:05;3.30;;;1.53;;
8887;SDS011;4480;52.370;9.748;2022-09-09T14:59:33;2.30;;;1.33;;
8887;SDS011;4480;52.370;9.748;2022-09-09T15:02:00;7.43;;;2.20;;
8887;SDS011;4480;52.370;9.748;2022-09-09T15:04:29;3.60;;;1.63;;
8887;SDS011;4480;52.370;9.748;2022-09-09T15:06:55;2.70;;;1.30;;
8887;SDS011;4480;52.370;9.748;2022-09-09T15:09:23;1.90;;;1.50;;
8887;SDS011;4480;52.370;9.748;2022-09-09T15:11:50;3.67;;;1.37;;
8887;SDS011;4480;52.370;9.748;2022-09-09T15:14:17;1.97;;;0.90;;
8887;SDS011;4480;52.370;9.748;2022-09-09T15:16:45;4.00;;;1.20;;
8887;SDS011;4480;52.370;9.748;2022-09-09T15:19:12;3.00;;;1.50;;
8887;SDS011;4480;52.370;9.748;2022-09-09T15:21:38;2.87;;;1.97;;
8887;SDS011;4480;52.370;9.748;2022-09-09T15:24:06;1.40;;;1.03;;
8887;SDS011;4480;52.370;9.748;2022-09-09T15:26:35;3.30;;;1.40;;
8887;SDS011;4480;52.370;9.748;2022-09-09T15:29:04;2.53;;;1.70;;
8887;SDS011;4480;52.370;9.748;2022-09-09T15:31:32;4.93;;;2.60;;
8887;SDS011;4480;52.370;9.748;2022-09-09T15:34:01;4.73;;;1.77;;
8887;SDS011;4480;52.370;9.748;2022-09-09T15:36:32;4.00;;;1.60;;
8887;SDS011;4480;52.370;9.748;2022-09-09T15:39:02;2.37;;;1.23;;
8887;SDS011;4480;52.370;9.748;2022-09-09T15:41:30;1.53;;;1.20;;
8887;SDS011;4480;52.370;9.748;2022-09-09T15:43:57;2.70;;;1.30;;
8887;SDS011;4480;52.370;9.748;2022-09-09T15:46:26;2.87;;;1.67;;
8887;SDS011;4480;52.370;9.748;2022-09-09T15:48:57;5.57;;;1.90;;